Norwegian Jewel — C6TX6 — position and weather

sailwx.info

Track history (hours):
 
Tides and Currents Weather Stations Pressure Air Temp Water Temp Dewpoint Dewpoint Depression Visibility Wind Speed Wind Dir Waves Ship Positions

Norwegian Jewel

Last reported at 2019-Apr-25 17:19 UTC. Time now 2019-Apr-26 03:56 UTC.
Position N 33°36' E 135°13'.

Type: Passenger vessel. MMSI: 311827000.

Date/timePositionNaut miles runAvg speedWind from/ knotsBaromVisibWave heightAir tempDewpointWater temp
2019-Apr-25 17:19N 33°36' E 135°13'821.5
2019-Apr-25 16:57N 33°42' E 135°08'921.1
2019-Apr-25 16:31N 33°50' E 135°02'1020.6
2019-Apr-25 16:01N 33°60' E 134°60'1020.9
2019-Apr-25 15:31N 34°10' E 134°58'612.4
2019-Apr-25 15:01N 34°16' E 134°58'917.8
2019-Apr-25 14:31N 34°25' E 135°02'1020.4
2019-Apr-25 14:01N 34°34' E 135°08'1019.0
2019-Apr-25 13:30N 34°36' E 135°19'611.4
2019-Apr-25 13:00N 34°39' E 135°25'0 0.7
2019-Apr-25 12:30N 34°39' E 135°26'0 0.0
2019-Apr-25 11:54N 34°39' E 135°26'0 0.0
2019-Apr-25 11:30N 34°39' E 135°26'0 0.0
2019-Apr-25 11:00N 34°39' E 135°26'0 0.0
2019-Apr-25 10:30N 34°39' E 135°26'0 0.0
2019-Apr-25 09:42N 34°39' E 135°26'0 0.0
2019-Apr-25 09:24N 34°39' E 135°26'0 0.0
2019-Apr-25 09:00N 34°39' E 135°26'0 0.0
2019-Apr-25 08:24N 34°39' E 135°26'0 0.0
2019-Apr-25 08:00N 34°39' E 135°26'0 0.0
2019-Apr-25 07:15N 34°39' E 135°26'0 0.0
2019-Apr-25 07:00N 34°39' E 135°26'0 0.0
2019-Apr-25 06:30N 34°39' E 135°26'0 0.0
2019-Apr-25 06:00N 34°39' E 135°26'0 0.0
2019-Apr-25 05:30N 34°39' E 135°26'0 0.0
2019-Apr-25 05:00N 34°39' E 135°26'0 0.0
2019-Apr-25 04:21N 34°39' E 135°26'0 0.0
2019-Apr-25 04:00N 34°39' E 135°26'0 0.0
2019-Apr-25 03:30N 34°39' E 135°26'0 0.0
2019-Apr-25 03:00N 34°39' E 135°26'0 0.0
2019-Apr-25 02:24N 34°39' E 135°26'0 0.0
2019-Apr-25 01:36N 34°39' E 135°26'0 0.0
2019-Apr-25 01:03N 34°39' E 135°26'0 0.0
2019-Apr-25 00:57N 34°39' E 135°26'0 0.0
2019-Apr-25 00:24N 34°39' E 135°26'0 0.0
2019-Apr-24 23:54N 34°39' E 135°26'0 0.0
2019-Apr-24 23:21N 34°39' E 135°26'0 0.0
2019-Apr-24 22:51N 34°39' E 135°26'0 0.0
2019-Apr-24 22:30N 34°39' E 135°26'0 0.0
2019-Apr-24 21:51N 34°39' E 135°26'0 0.0
2019-Apr-24 21:21N 34°39' E 135°26'0 1.4
2019-Apr-24 21:00N 34°39' E 135°25'3 6.5
2019-Apr-24 20:30N 34°37' E 135°22'714.6
2019-Apr-24 20:00N 34°32' E 135°16'917.7
2019-Apr-24 19:30N 34°26' E 135°08'917.2
2019-Apr-24 19:00N 34°20' E 135°01'815.7
2019-Apr-24 18:30N 34°12' E 134°59'612.8
2019-Apr-24 18:01N 34°06' E 134°58'815.1
2019-Apr-24 17:31N 33°58' E 134°57'612.7
2019-Apr-24 17:00N 33°52' E 134°55'65812.9
2019-Apr-22 14:02N 31°06' E 122°21'1 9.6
2019-Apr-22 13:56N 31°06' E 122°19'510.3
2019-Apr-22 13:29N 31°08' E 122°15'714.0
2019-Apr-22 12:58N 31°12' E 122°08'814.4
2019-Apr-22 12:27N 31°15' E 121°59'914.8
2019-Apr-22 11:50N 31°17' E 121°49'712.5
2019-Apr-22 11:14N 31°20' E 121°41'3 0.1
2019-Apr-21 02:42N 31°19' E 121°44'212.5
2019-Apr-21 02:30N 31°18' E 121°47'510.3
2019-Apr-21 02:00N 31°16' E 121°53'510.1
2019-Apr-21 01:30N 31°15' E 121°58'5 9.2
2019-Apr-21 01:00N 31°14' E 122°04'5 9.6
2019-Apr-21 00:28N 31°12' E 122°09'510.1
2019-Apr-20 23:59N 31°09' E 122°14'611.5
2019-Apr-20 23:30N 31°06' E 122°19'38916.8
2019-Apr-20 00:19N 24°37' E 122°43'617.0
2019-Apr-19 23:57N 24°42' E 122°38'816.5
2019-Apr-19 23:29N 24°47' E 122°32'1216.1
2019-Apr-19 22:42N 24°56' E 122°22'1417.6
2019-Apr-19 21:56N 25°04' E 122°10'1117.9
2019-Apr-19 21:20N 25°11' E 122°01'618.1
2019-Apr-19 21:00N 25°13' E 121°55'815.3
2019-Apr-19 20:30N 25°13' E 121°46'510.4
2019-Apr-19 20:00N 25°08' E 121°45'0 0.3
2019-Apr-19 19:30N 25°08' E 121°45'0 0.0
2019-Apr-19 19:00N 25°08' E 121°45'0 0.0
2019-Apr-19 18:30N 25°08' E 121°45'0 0.0
2019-Apr-19 18:00N 25°08' E 121°45'0 0.0
2019-Apr-19 17:30N 25°08' E 121°45'0 0.0
2019-Apr-19 17:00N 25°08' E 121°45'0 0.0
2019-Apr-19 16:24N 25°08' E 121°45'0 0.0
2019-Apr-19 16:00N 25°08' E 121°45'0 0.0
2019-Apr-19 15:30N 25°08' E 121°45'0 0.0
2019-Apr-19 15:00N 25°08' E 121°45'0 0.0
2019-Apr-19 14:30N 25°08' E 121°45'0 0.0
2019-Apr-19 14:00N 25°08' E 121°45'0 0.0
2019-Apr-19 13:30N 25°08' E 121°45'0 0.0
2019-Apr-19 13:00N 25°08' E 121°45'0 0.0
2019-Apr-19 12:24N 25°08' E 121°45'0 0.0
2019-Apr-19 12:00N 25°08' E 121°45'0 0.0
2019-Apr-19 11:30N 25°08' E 121°45'0 0.0
2019-Apr-19 11:00N 25°08' E 121°45'0 0.0
2019-Apr-19 10:30N 25°08' E 121°45'0 0.0
2019-Apr-19 10:00N 25°08' E 121°45'0 0.0
2019-Apr-19 09:30N 25°08' E 121°45'0 0.0
2019-Apr-19 09:00N 25°08' E 121°45'0 0.0
2019-Apr-19 08:30N 25°08' E 121°45'0 0.0
2019-Apr-19 08:00N 25°08' E 121°45'0 0.0
2019-Apr-19 07:30N 25°08' E 121°45'0 0.0
2019-Apr-19 07:00N 25°08' E 121°45'0 0.0
2019-Apr-19 06:30N 25°08' E 121°45'0 0.0
2019-Apr-19 06:00N 25°08' E 121°45'0 0.0
2019-Apr-19 05:30N 25°08' E 121°45'0 0.0
2019-Apr-19 05:00N 25°08' E 121°45'0 0.0
2019-Apr-19 04:30N 25°08' E 121°45'0 0.0
2019-Apr-19 04:00N 25°08' E 121°45'0 0.0
2019-Apr-19 03:30N 25°08' E 121°45'0 0.0
2019-Apr-19 03:00N 25°08' E 121°45'0 0.0
2019-Apr-19 02:30N 25°08' E 121°45'0 0.0
2019-Apr-19 02:00N 25°08' E 121°45'0 0.0
2019-Apr-19 01:30N 25°08' E 121°45'0 0.0
2019-Apr-19 01:00N 25°08' E 121°45'0 0.0
2019-Apr-19 00:30N 25°08' E 121°45'0 0.0
2019-Apr-19 00:00N 25°08' E 121°45'0 0.0
2019-Apr-18 23:30N 25°08' E 121°45'0 0.4
2019-Apr-18 23:00N 25°08' E 121°45'1 2.4
2019-Apr-18 22:30N 25°09' E 121°45'510.4
2019-Apr-18 22:00N 25°15' E 121°44'611.9
2019-Apr-18 21:30N 25°19' E 121°40'712.7
2019-Apr-18 20:59N 25°22' E 121°33'612.1
2019-Apr-18 20:30N 25°22' E 121°27'712.5
2019-Apr-18 19:56N 25°19' E 121°19'1712.4
2019-Apr-18 18:34N 25°14' E 121°02'112.9
2019-Apr-18 18:29N 25°13' E 121°01'612.5
2019-Apr-18 17:59N 25°11' E 120°54'3713.1
2019-Apr-18 15:08N 24°52' E 120°18'213.4
2019-Apr-18 15:00N 24°52' E 120°17'2313.2
2019-Apr-18 13:16N 24°40' E 119°55'1113.2
2019-Apr-18 12:28N 24°35' E 119°45'613.1
2019-Apr-18 11:59N 24°32' E 119°39'613.0
2019-Apr-18 11:30N 24°29' E 119°33'713.3
2019-Apr-18 11:00N 24°25' E 119°27'713.2
2019-Apr-18 10:30N 24°23' E 119°20'713.0
2019-Apr-18 10:00N 24°21' E 119°13'613.2
2019-Apr-18 09:30N 24°16' E 119°08'713.2
2019-Apr-18 08:58N 24°11' E 119°03'1013.3
2019-Apr-18 08:13N 24°05' E 118°54'312.9
2019-Apr-18 08:00N 24°03' E 118°52'613.1
2019-Apr-18 07:30N 23°59' E 118°47'913.2
2019-Apr-18 06:50N 23°52' E 118°40'1713.3
2019-Apr-18 05:33N 23°41' E 118°26'113.1
2019-Apr-18 05:30N 23°41' E 118°25'1513.2
2019-Apr-18 04:23N 23°31' E 118°13'513.2
2019-Apr-18 03:58N 23°28' E 118°08'813.8
2019-Apr-18 03:22N 23°23' E 118°01'22012.3
2019-Apr-17 09:32N 22°17' E 114°14'1 8.8
2019-Apr-17 09:28N 22°18' E 114°13'1 1.0
2019-Apr-17 08:53N 22°18' E 114°13'0 0.0
2019-Apr-17 08:26N 22°18' E 114°13'0 0.0
2019-Apr-17 07:44N 22°18' E 114°13'0 0.0
2019-Apr-17 07:17N 22°18' E 114°13'0 0.0
2019-Apr-17 06:02N 22°18' E 114°13'0 0.0
2019-Apr-17 05:47N 22°18' E 114°13'0 0.0
2019-Apr-17 05:23N 22°18' E 114°13'0 0.0
2019-Apr-17 04:47N 22°18' E 114°13'0 0.0
2019-Apr-17 04:29N 22°18' E 114°13'0 0.0
2019-Apr-17 03:59N 22°18' E 114°13'0 0.0
2019-Apr-17 03:29N 22°18' E 114°13'0 0.0
2019-Apr-17 02:59N 22°18' E 114°13'0 0.0
2019-Apr-17 02:14N 22°18' E 114°13'0 0.0
2019-Apr-17 01:59N 22°18' E 114°13'0 0.0
2019-Apr-17 01:23N 22°18' E 114°13'0 0.0
2019-Apr-17 00:29N 22°18' E 114°13'0 0.0
2019-Apr-16 23:32N 22°18' E 114°13'0 0.0
2019-Apr-16 23:20N 22°18' E 114°13'0 0.0
2019-Apr-16 22:50N 22°18' E 114°13'0 0.0
2019-Apr-16 22:26N 22°18' E 114°13'1 2.3
2019-Apr-16 22:00N 22°18' E 114°13'  
Track history (hours):
 
Tides and Currents Weather Stations Pressure Air Temp Water Temp Dewpoint Dewpoint Depression Visibility Wind Speed Wind Dir Waves Ship Positions

Norwegian Jewel

Last reported at 2019-Apr-25 17:19 UTC. Time now 2019-Apr-26 03:56 UTC.
Position N 33°36' E 135°13'.

Type: Passenger vessel. MMSI: 311827000.

Date/timePositionNaut miles runAvg speedWind from/ knotsBaromVisibWave heightAir tempDewpointWater temp
2019-Apr-25 17:19N 33°36' E 135°13'821.5
2019-Apr-25 16:57N 33°42' E 135°08'921.1
2019-Apr-25 16:31N 33°50' E 135°02'1020.6
2019-Apr-25 16:01N 33°60' E 134°60'1020.9
2019-Apr-25 15:31N 34°10' E 134°58'612.4
2019-Apr-25 15:01N 34°16' E 134°58'917.8
2019-Apr-25 14:31N 34°25' E 135°02'1020.4
2019-Apr-25 14:01N 34°34' E 135°08'1019.0
2019-Apr-25 13:30N 34°36' E 135°19'611.4
2019-Apr-25 13:00N 34°39' E 135°25'0 0.7
2019-Apr-25 12:30N 34°39' E 135°26'0 0.0
2019-Apr-25 11:54N 34°39' E 135°26'0 0.0
2019-Apr-25 11:30N 34°39' E 135°26'0 0.0
2019-Apr-25 11:00N 34°39' E 135°26'0 0.0
2019-Apr-25 10:30N 34°39' E 135°26'0 0.0
2019-Apr-25 09:42N 34°39' E 135°26'0 0.0
2019-Apr-25 09:24N 34°39' E 135°26'0 0.0
2019-Apr-25 09:00N 34°39' E 135°26'0 0.0
2019-Apr-25 08:24N 34°39' E 135°26'0 0.0
2019-Apr-25 08:00N 34°39' E 135°26'0 0.0
2019-Apr-25 07:15N 34°39' E 135°26'0 0.0
2019-Apr-25 07:00N 34°39' E 135°26'0 0.0
2019-Apr-25 06:30N 34°39' E 135°26'0 0.0
2019-Apr-25 06:00N 34°39' E 135°26'0 0.0
2019-Apr-25 05:30N 34°39' E 135°26'0 0.0
2019-Apr-25 05:00N 34°39' E 135°26'0 0.0
2019-Apr-25 04:21N 34°39' E 135°26'0 0.0
2019-Apr-25 04:00N 34°39' E 135°26'0 0.0
2019-Apr-25 03:30N 34°39' E 135°26'0 0.0
2019-Apr-25 03:00N 34°39' E 135°26'0 0.0
2019-Apr-25 02:24N 34°39' E 135°26'0 0.0
2019-Apr-25 01:36N 34°39' E 135°26'0 0.0
2019-Apr-25 01:03N 34°39' E 135°26'0 0.0
2019-Apr-25 00:57N 34°39' E 135°26'0 0.0
2019-Apr-25 00:24N 34°39' E 135°26'0 0.0
2019-Apr-24 23:54N 34°39' E 135°26'0 0.0
2019-Apr-24 23:21N 34°39' E 135°26'0 0.0
2019-Apr-24 22:51N 34°39' E 135°26'0 0.0
2019-Apr-24 22:30N 34°39' E 135°26'0 0.0
2019-Apr-24 21:51N 34°39' E 135°26'0 0.0
2019-Apr-24 21:21N 34°39' E 135°26'0 1.4
2019-Apr-24 21:00N 34°39' E 135°25'3 6.5
2019-Apr-24 20:30N 34°37' E 135°22'714.6
2019-Apr-24 20:00N 34°32' E 135°16'917.7
2019-Apr-24 19:30N 34°26' E 135°08'917.2
2019-Apr-24 19:00N 34°20' E 135°01'815.7
2019-Apr-24 18:30N 34°12' E 134°59'612.8
2019-Apr-24 18:01N 34°06' E 134°58'815.1
2019-Apr-24 17:31N 33°58' E 134°57'612.7
2019-Apr-24 17:00N 33°52' E 134°55'65812.9
2019-Apr-22 14:02N 31°06' E 122°21'1 9.6
2019-Apr-22 13:56N 31°06' E 122°19'510.3
2019-Apr-22 13:29N 31°08' E 122°15'714.0
2019-Apr-22 12:58N 31°12' E 122°08'814.4
2019-Apr-22 12:27N 31°15' E 121°59'914.8
2019-Apr-22 11:50N 31°17' E 121°49'712.5
2019-Apr-22 11:14N 31°20' E 121°41'3 0.1
2019-Apr-21 02:42N 31°19' E 121°44'212.5
2019-Apr-21 02:30N 31°18' E 121°47'510.3
2019-Apr-21 02:00N 31°16' E 121°53'510.1
2019-Apr-21 01:30N 31°15' E 121°58'5 9.2
2019-Apr-21 01:00N 31°14' E 122°04'5 9.6
2019-Apr-21 00:28N 31°12' E 122°09'510.1
2019-Apr-20 23:59N 31°09' E 122°14'611.5
2019-Apr-20 23:30N 31°06' E 122°19'38916.8
2019-Apr-20 00:19N 24°37' E 122°43'617.0
2019-Apr-19 23:57N 24°42' E 122°38'816.5
2019-Apr-19 23:29N 24°47' E 122°32'1216.1
2019-Apr-19 22:42N 24°56' E 122°22'1417.6
2019-Apr-19 21:56N 25°04' E 122°10'1117.9
2019-Apr-19 21:20N 25°11' E 122°01'618.1
2019-Apr-19 21:00N 25°13' E 121°55'815.3
2019-Apr-19 20:30N 25°13' E 121°46'510.4
2019-Apr-19 20:00N 25°08' E 121°45'0 0.3
2019-Apr-19 19:30N 25°08' E 121°45'0 0.0
2019-Apr-19 19:00N 25°08' E 121°45'0 0.0
2019-Apr-19 18:30N 25°08' E 121°45'0 0.0
2019-Apr-19 18:00N 25°08' E 121°45'0 0.0
2019-Apr-19 17:30N 25°08' E 121°45'0 0.0
2019-Apr-19 17:00N 25°08' E 121°45'0 0.0
2019-Apr-19 16:24N 25°08' E 121°45'0 0.0
2019-Apr-19 16:00N 25°08' E 121°45'0 0.0
2019-Apr-19 15:30N 25°08' E 121°45'0 0.0
2019-Apr-19 15:00N 25°08' E 121°45'0 0.0
2019-Apr-19 14:30N 25°08' E 121°45'0 0.0
2019-Apr-19 14:00N 25°08' E 121°45'0 0.0
2019-Apr-19 13:30N 25°08' E 121°45'0 0.0
2019-Apr-19 13:00N 25°08' E 121°45'0 0.0
2019-Apr-19 12:24N 25°08' E 121°45'0 0.0
2019-Apr-19 12:00N 25°08' E 121°45'0 0.0
2019-Apr-19 11:30N 25°08' E 121°45'0 0.0
2019-Apr-19 11:00N 25°08' E 121°45'0 0.0
2019-Apr-19 10:30N 25°08' E 121°45'0 0.0
2019-Apr-19 10:00N 25°08' E 121°45'0 0.0
2019-Apr-19 09:30N 25°08' E 121°45'0 0.0
2019-Apr-19 09:00N 25°08' E 121°45'0 0.0
2019-Apr-19 08:30N 25°08' E 121°45'0 0.0
2019-Apr-19 08:00N 25°08' E 121°45'0 0.0
2019-Apr-19 07:30N 25°08' E 121°45'0 0.0
2019-Apr-19 07:00N 25°08' E 121°45'0 0.0
2019-Apr-19 06:30N 25°08' E 121°45'0 0.0
2019-Apr-19 06:00N 25°08' E 121°45'0 0.0
2019-Apr-19 05:30N 25°08' E 121°45'0 0.0
2019-Apr-19 05:00N 25°08' E 121°45'0 0.0
2019-Apr-19 04:30N 25°08' E 121°45'0 0.0
2019-Apr-19 04:00N 25°08' E 121°45'0 0.0
2019-Apr-19 03:30N 25°08' E 121°45'0 0.0
2019-Apr-19 03:00N 25°08' E 121°45'0 0.0
2019-Apr-19 02:30N 25°08' E 121°45'0 0.0
2019-Apr-19 02:00N 25°08' E 121°45'0 0.0
2019-Apr-19 01:30N 25°08' E 121°45'0 0.0
2019-Apr-19 01:00N 25°08' E 121°45'0 0.0
2019-Apr-19 00:30N 25°08' E 121°45'0 0.0
2019-Apr-19 00:00N 25°08' E 121°45'0 0.0
2019-Apr-18 23:30N 25°08' E 121°45'0 0.4
2019-Apr-18 23:00N 25°08' E 121°45'1 2.4
2019-Apr-18 22:30N 25°09' E 121°45'510.4
2019-Apr-18 22:00N 25°15' E 121°44'611.9
2019-Apr-18 21:30N 25°19' E 121°40'712.7
2019-Apr-18 20:59N 25°22' E 121°33'612.1
2019-Apr-18 20:30N 25°22' E 121°27'712.5
2019-Apr-18 19:56N 25°19' E 121°19'1712.4
2019-Apr-18 18:34N 25°14' E 121°02'112.9
2019-Apr-18 18:29N 25°13' E 121°01'612.5
2019-Apr-18 17:59N 25°11' E 120°54'3713.1
2019-Apr-18 15:08N 24°52' E 120°18'213.4
2019-Apr-18 15:00N 24°52' E 120°17'2313.2
2019-Apr-18 13:16N 24°40' E 119°55'1113.2
2019-Apr-18 12:28N 24°35' E 119°45'613.1
2019-Apr-18 11:59N 24°32' E 119°39'613.0
2019-Apr-18 11:30N 24°29' E 119°33'713.3
2019-Apr-18 11:00N 24°25' E 119°27'713.2
2019-Apr-18 10:30N 24°23' E 119°20'713.0
2019-Apr-18 10:00N 24°21' E 119°13'613.2
2019-Apr-18 09:30N 24°16' E 119°08'713.2
2019-Apr-18 08:58N 24°11' E 119°03'1013.3
2019-Apr-18 08:13N 24°05' E 118°54'312.9
2019-Apr-18 08:00N 24°03' E 118°52'613.1
2019-Apr-18 07:30N 23°59' E 118°47'913.2
2019-Apr-18 06:50N 23°52' E 118°40'1713.3
2019-Apr-18 05:33N 23°41' E 118°26'113.1
2019-Apr-18 05:30N 23°41' E 118°25'1513.2
2019-Apr-18 04:23N 23°31' E 118°13'513.2
2019-Apr-18 03:58N 23°28' E 118°08'813.8
2019-Apr-18 03:22N 23°23' E 118°01'22012.3
2019-Apr-17 09:32N 22°17' E 114°14'1 8.8
2019-Apr-17 09:28N 22°18' E 114°13'1 1.0
2019-Apr-17 08:53N 22°18' E 114°13'0 0.0
2019-Apr-17 08:26N 22°18' E 114°13'0 0.0
2019-Apr-17 07:44N 22°18' E 114°13'0 0.0
2019-Apr-17 07:17N 22°18' E 114°13'0 0.0
2019-Apr-17 06:02N 22°18' E 114°13'0 0.0
2019-Apr-17 05:47N 22°18' E 114°13'0 0.0
2019-Apr-17 05:23N 22°18' E 114°13'0 0.0
2019-Apr-17 04:47N 22°18' E 114°13'0 0.0
2019-Apr-17 04:29N 22°18' E 114°13'0 0.0
2019-Apr-17 03:59N 22°18' E 114°13'0 0.0
2019-Apr-17 03:29N 22°18' E 114°13'0 0.0
2019-Apr-17 02:59N 22°18' E 114°13'0 0.0
2019-Apr-17 02:14N 22°18' E 114°13'0 0.0
2019-Apr-17 01:59N 22°18' E 114°13'0 0.0
2019-Apr-17 01:23N 22°18' E 114°13'0 0.0
2019-Apr-17 00:29N 22°18' E 114°13'0 0.0
2019-Apr-16 23:32N 22°18' E 114°13'0 0.0
2019-Apr-16 23:20N 22°18' E 114°13'0 0.0
2019-Apr-16 22:50N 22°18' E 114°13'0 0.0
2019-Apr-16 22:26N 22°18' E 114°13'1 2.3
2019-Apr-16 22:00N 22°18' E 114°13'  

Dump ship's entire track history